N264KA EGKB-EGKK
Flight info
| Callsign | N264KA |
|---|---|
| Flight time | 0h 8m |
| Altitude | 2300 |
| Route | DCT EGKK |
| Aircraft | C525/L-SDFGRWY/S |
Departure
| Time | 2026-04-23 14:06 |
|---|---|
| Airport | London Biggin Hill Airport (EGKB) |
Arrival
| Time | 2026-04-23 14:15 |
|---|---|
| Airport | London Gatwick Airport (EGKK) |
| Time | Latitude | Longitude | Altitude | Speed | Heading |
|---|---|---|---|---|---|
| 2026-04-23 13:48 | 51.33199 | 0.02940 | 556 ft | 0 kts | 194° |
| 2026-04-23 14:02 | 51.33181 | 0.02954 | 556 ft | 5 kts | 116° |
| 2026-04-23 14:03 | 51.33150 | 0.03016 | 557 ft | 8 kts | 184° |
| 2026-04-23 14:03 | 51.33087 | 0.02972 | 559 ft | 11 kts | 205° |
| 2026-04-23 14:03 | 51.33007 | 0.02911 | 562 ft | 13 kts | 205° |
| 2026-04-23 14:03 | 51.32914 | 0.02847 | 565 ft | 15 kts | 199° |
| 2026-04-23 14:04 | 51.32808 | 0.02766 | 567 ft | 17 kts | 211° |
| 2026-04-23 14:04 | 51.32702 | 0.02679 | 569 ft | 16 kts | 205° |
| 2026-04-23 14:04 | 51.32603 | 0.02604 | 570 ft | 14 kts | 205° |
| 2026-04-23 14:04 | 51.32516 | 0.02544 | 570 ft | 12 kts | 187° |
| 2026-04-23 14:05 | 51.32481 | 0.02551 | 570 ft | 0 kts | 166° |
| 2026-04-23 14:05 | 51.32475 | 0.02554 | 570 ft | 3 kts | 163° |
| 2026-04-23 14:05 | 51.32434 | 0.02586 | 571 ft | 9 kts | 128° |
| 2026-04-23 14:05 | 51.32402 | 0.02706 | 574 ft | 12 kts | 60° |
| 2026-04-23 14:06 | 51.32658 | 0.02911 | 573 ft | 77 kts | 27° |
| 2026-04-23 14:06 | 51.33307 | 0.03398 | 664 ft | 119 kts | 28° |
| 2026-04-23 14:06 | 51.34106 | 0.03987 | 1101 ft | 131 kts | 31° |
| 2026-04-23 14:06 | 51.34938 | 0.04661 | 1510 ft | 138 kts | 31° |
| 2026-04-23 14:07 | 51.35519 | 0.05806 | 1870 ft | 140 kts | 80° |
| 2026-04-23 14:07 | 51.34014 | 0.07793 | 2236 ft | 183 kts | 181° |
| 2026-04-23 14:07 | 51.32724 | 0.06886 | 2282 ft | 191 kts | 207° |
| 2026-04-23 14:08 | 51.31560 | 0.05672 | 2271 ft | 197 kts | 211° |
| 2026-04-23 14:08 | 51.30396 | 0.04354 | 2261 ft | 202 kts | 218° |
| 2026-04-23 14:08 | 51.29651 | 0.02426 | 2286 ft | 206 kts | 246° |
| 2026-04-23 14:08 | 51.29240 | 0.00194 | 2268 ft | 210 kts | 259° |
| 2026-04-23 14:09 | 51.28973 | -0.02091 | 2264 ft | 212 kts | 259° |
| 2026-04-23 14:09 | 51.28654 | -0.04445 | 2266 ft | 214 kts | 257° |
| 2026-04-23 14:09 | 51.28327 | -0.06776 | 2272 ft | 216 kts | 257° |
| 2026-04-23 14:09 | 51.27992 | -0.09131 | 2276 ft | 217 kts | 257° |
| 2026-04-23 14:10 | 51.27628 | -0.11514 | 2261 ft | 218 kts | 251° |
| 2026-04-23 14:10 | 51.27046 | -0.13776 | 2256 ft | 219 kts | 245° |
| 2026-04-23 14:10 | 51.26387 | -0.16036 | 2028 ft | 228 kts | 243° |
| 2026-04-23 14:10 | 51.25644 | -0.18496 | 1801 ft | 233 kts | 243° |
| 2026-04-23 14:11 | 51.24926 | -0.20840 | 1752 ft | 229 kts | 243° |
| 2026-04-23 14:11 | 51.24236 | -0.23090 | 1747 ft | 221 kts | 243° |
| 2026-04-23 14:11 | 51.23531 | -0.25277 | 1741 ft | 213 kts | 235° |
| 2026-04-23 14:11 | 51.22454 | -0.26825 | 1744 ft | 201 kts | 204° |
| 2026-04-23 14:12 | 51.21143 | -0.27669 | 1749 ft | 190 kts | 193° |
| 2026-04-23 14:12 | 51.19890 | -0.28123 | 1725 ft | 172 kts | 177° |
| 2026-04-23 14:12 | 51.18747 | -0.28077 | 1725 ft | 155 kts | 168° |
| 2026-04-23 14:12 | 51.17692 | -0.27797 | 1672 ft | 146 kts | 161° |
| 2026-04-23 14:13 | 51.16597 | -0.27414 | 1412 ft | 159 kts | 162° |
| 2026-04-23 14:13 | 51.15443 | -0.26999 | 1244 ft | 163 kts | 158° |
| 2026-04-23 14:13 | 51.14510 | -0.25996 | 1030 ft | 157 kts | 121° |
| 2026-04-23 14:13 | 51.14115 | -0.24426 | 721 ft | 143 kts | 90° |
| 2026-04-23 14:14 | 51.14265 | -0.22927 | 542 ft | 130 kts | 75° |
| 2026-04-23 14:14 | 51.14464 | -0.21540 | 313 ft | 122 kts | 78° |
| 2026-04-23 14:14 | 51.14627 | -0.20357 | 221 ft | 100 kts | 77° |
| 2026-04-23 14:14 | 51.14769 | -0.19366 | 189 ft | 83 kts | 78° |
| 2026-04-23 14:15 | 51.14875 | -0.18588 | 192 ft | 61 kts | 78° |
| 2026-04-23 14:15 | 51.14954 | -0.18011 | 191 ft | 46 kts | 77° |
| 2026-04-23 14:15 | 51.14930 | -0.17703 | 191 ft | 23 kts | 165° |
| 2026-04-23 14:15 | 51.14833 | -0.17660 | 191 ft | 8 kts | 153° |
| 2026-04-23 14:16 | 51.14802 | -0.17606 | 192 ft | 6 kts | 111° |
| 2026-04-23 14:16 | 51.14801 | -0.17497 | 192 ft | 12 kts | 79° |
| 2026-04-23 14:16 | 51.14755 | -0.17400 | 194 ft | 12 kts | 117° |
| 2026-04-23 14:16 | 51.14728 | -0.17284 | 195 ft | 13 kts | 138° |
| 2026-04-23 14:17 | 51.14735 | -0.17246 | 195 ft | 3 kts | 237° |
| 2026-04-23 14:17 | 51.14735 | -0.17248 | 195 ft | 0 kts | 232° |